Time;durP1;ratioP1;P1;durP2;ratioP2;P2;SDS_P1;SDS_P2;PMS_P1;PMS_P2;Temp;Humidity;BMP_temperature;BMP_pressure;BME280_temperature;BME280_humidity;BME280_pressure;Samples;Min_cycle;Max_cycle;Signal;HPM_P1;HPM_P2
2023/06/01 00:02:13;;;;;;;12.70;8.10;;;;;;;13.63;76.64;101435.28;5026616;28;20221;-71
2023/06/01 00:04:40;;;;;;;10.77;7.20;;;;;;;13.59;76.79;101438.25;5024790;28;20198;-71
2023/06/01 00:07:06;;;;;;;13.57;7.87;;;;;;;13.53;76.91;101442.19;5027309;28;20230;-71
2023/06/01 00:09:34;;;;;;;13.77;7.20;;;;;;;13.48;77.40;101431.75;5027760;28;20214;-71
2023/06/01 00:12:01;;;;;;;12.37;7.30;;;;;;;13.43;77.70;101435.69;5024010;28;20206;-71
2023/06/01 00:14:28;;;;;;;12.27;7.50;;;;;;;13.38;77.90;101437.78;5024386;28;20252;-71
2023/06/01 00:16:55;;;;;;;11.17;7.13;;;;;;;13.33;77.70;101437.22;5023488;28;20733;-71
2023/06/01 00:19:22;;;;;;;12.57;7.03;;;;;;;13.27;77.76;101435.78;5024397;28;20257;-70
2023/06/01 00:21:48;;;;;;;12.00;7.63;;;;;;;13.20;78.42;101431.78;5018976;28;20213;-71
2023/06/01 00:24:15;;;;;;;10.03;7.47;;;;;;;13.17;78.38;101429.28;5019822;28;20289;-72
2023/06/01 00:26:43;;;;;;;11.40;7.73;;;;;;;13.11;78.54;101429.63;5023033;28;20237;-72
2023/06/01 00:29:09;;;;;;;10.33;7.37;;;;;;;13.06;78.99;101432.59;5026718;28;20213;-71
2023/06/01 00:31:36;;;;;;;11.00;6.77;;;;;;;13.01;78.91;101432.00;5024732;28;20635;-71
2023/06/01 00:34:02;;;;;;;10.57;6.83;;;;;;;12.97;78.55;101441.16;5025254;28;20217;-72
2023/06/01 00:36:29;;;;;;;11.70;7.27;;;;;;;12.93;78.98;101434.28;5019772;28;20221;-71
2023/06/01 00:39:01;;;;;;;9.70;6.80;;;;;;;12.90;79.26;101439.81;5017774;28;20367;-71
2023/06/01 00:41:28;;;;;;;10.33;6.43;;;;;;;12.87;78.90;101440.00;5026680;28;20210;-71
2023/06/01 00:43:55;;;;;;;14.13;6.53;;;;;;;12.81;78.93;101443.91;5020076;28;20214;-71
2023/06/01 00:46:22;;;;;;;8.90;6.17;;;;;;;12.77;78.80;101438.81;5026028;28;20240;-70
2023/06/01 00:48:50;;;;;;;8.87;6.27;;;;;;;12.70;78.31;101435.69;5022340;28;20202;-69
2023/06/01 00:51:16;;;;;;;11.60;6.60;;;;;;;12.64;78.59;101440.53;5027795;28;20213;-70
2023/06/01 00:53:43;;;;;;;11.27;6.77;;;;;;;12.61;78.75;101435.34;5024238;28;20212;-71
2023/06/01 00:56:11;;;;;;;11.67;7.70;;;;;;;12.55;78.82;101441.03;5022016;28;20233;-71
2023/06/01 00:58:38;;;;;;;13.80;7.33;;;;;;;12.49;78.90;101436.94;5025848;28;20512;-70
2023/06/01 01:01:07;;;;;;;11.87;7.37;;;;;;;12.44;78.69;101439.03;5027877;28;20207;-71
2023/06/01 01:03:34;;;;;;;13.57;6.83;;;;;;;12.40;79.03;101433.00;5025244;28;20212;-71
2023/06/01 01:06:11;;;;;;;10.30;6.43;;;;;;;12.39;79.35;101436.59;5020537;28;20256;-71
2023/06/01 01:08:47;;;;;;;9.40;7.33;;;;;;;12.34;78.83;101428.03;5026730;28;20644;-70
2023/06/01 01:11:21;;;;;;;9.07;6.60;;;;;;;12.28;79.10;101433.72;5025922;28;20338;-71
2023/06/01 01:13:53;;;;;;;8.57;5.90;;;;;;;12.27;79.32;101440.00;5023254;28;20205;-72
2023/06/01 01:16:27;;;;;;;9.27;6.13;;;;;;;12.23;78.85;101438.44;5025500;28;20235;-70
2023/06/01 01:18:58;;;;;;;10.63;6.07;;;;;;;12.16;78.85;101434.44;5025016;28;20231;-71
2023/06/01 01:21:30;;;;;;;14.57;6.73;;;;;;;12.09;79.10;101433.03;5026809;28;20202;-71
2023/06/01 01:24:12;;;;;;;7.73;5.40;;;;;;;12.06;79.13;101433.22;5020597;28;20216;-71
2023/06/01 01:26:52;;;;;;;8.47;6.00;;;;;;;12.02;79.59;101434.31;5019611;28;20254;-71
2023/06/01 01:29:24;;;;;;;9.17;6.10;;;;;;;11.98;79.62;101436.34;5021353;28;20233;-70
2023/06/01 01:31:51;;;;;;;9.03;5.47;;;;;;;11.93;79.79;101434.88;5019579;28;20210;-71
2023/06/01 01:34:20;;;;;;;9.57;5.80;;;;;;;11.90;80.04;101430.56;5017112;28;20593;-70
2023/06/01 01:36:47;;;;;;;9.70;6.53;;;;;;;11.91;80.10;101436.75;5025124;28;20796;-71
2023/06/01 01:39:13;;;;;;;11.17;5.73;;;;;;;11.88;80.52;101432.44;5021854;28;20219;-70
2023/06/01 01:41:40;;;;;;;9.00;5.53;;;;;;;11.88;80.47;101420.91;5024030;28;20633;-71
2023/06/01 01:44:06;;;;;;;12.87;6.33;;;;;;;11.87;80.77;101419.19;5022800;28;20211;-71
2023/06/01 01:46:44;;;;;;;9.07;6.43;;;;;;;11.86;81.03;101425.47;5024815;28;20237;-71
2023/06/01 01:49:17;;;;;;;11.07;6.37;;;;;;;11.85;80.98;101421.06;5026423;28;20214;-72
2023/06/01 01:51:51;;;;;;;10.60;6.53;;;;;;;11.84;81.08;101430.91;5025247;28;20234;-71
2023/06/01 01:54:19;;;;;;;10.77;6.97;;;;;;;11.86;81.19;101428.13;5022116;28;20214;-71
2023/06/01 01:56:47;;;;;;;9.03;5.70;;;;;;;11.88;81.60;101420.91;5020466;28;20303;-72
2023/06/01 01:59:16;;;;;;;9.80;5.97;;;;;;;11.89;81.50;101425.31;5028117;28;20209;-72
2023/06/01 02:01:44;;;;;;;7.40;6.07;;;;;;;11.90;81.53;101424.34;5020993;28;20643;-71
2023/06/01 02:04:11;;;;;;;9.97;6.37;;;;;;;11.90;81.38;101421.69;5022709;28;20668;-71
2023/06/01 02:06:38;;;;;;;10.10;6.57;;;;;;;11.86;81.03;101418.31;5025091;28;20231;-71
2023/06/01 02:09:06;;;;;;;14.83;7.93;;;;;;;11.83;81.06;101415.81;5022715;28;20207;-72
2023/06/01 02:11:33;;;;;;;10.10;6.87;;;;;;;11.78;81.04;101401.91;5025490;28;20297;-71
2023/06/01 02:13:59;;;;;;;11.63;7.03;;;;;;;11.75;81.19;101410.91;5019347;28;20205;-72
2023/06/01 02:16:25;;;;;;;11.97;7.20;;;;;;;11.74;81.62;101419.84;5023617;28;20608;-71
2023/06/01 02:18:53;;;;;;;15.13;7.40;;;;;;;11.75;81.23;101407.38;5013380;28;20205;-72
2023/06/01 02:21:20;;;;;;;13.13;8.60;;;;;;;11.72;81.60;101402.19;5026661;28;20237;-71
2023/06/01 02:23:46;;;;;;;13.53;7.73;;;;;;;11.72;81.71;101403.06;5014914;28;20208;-71
2023/06/01 02:26:13;;;;;;;12.10;7.70;;;;;;;11.74;81.90;101397.63;5018857;28;20244;-72
2023/06/01 02:28:41;;;;;;;14.30;9.13;;;;;;;11.76;82.44;101396.66;5019884;28;20202;-71
2023/06/01 02:31:07;;;;;;;15.07;9.13;;;;;;;11.76;82.16;101391.31;5023588;28;20215;-71
2023/06/01 02:33:34;;;;;;;13.60;9.03;;;;;;;11.75;82.41;101405.56;5023254;28;20211;-70
2023/06/01 02:36:02;;;;;;;14.77;9.23;;;;;;;11.73;82.37;101402.13;5022155;28;20227;-71
2023/06/01 02:38:28;;;;;;;12.93;9.37;;;;;;;11.70;82.30;101407.63;5020610;28;20211;-68
2023/06/01 02:40:55;;;;;;;16.77;9.00;;;;;;;11.68;82.37;101411.31;5019081;28;20220;-71
2023/06/01 02:43:21;;;;;;;13.93;8.30;;;;;;;11.65;82.61;101412.34;5024906;28;20565;-71
2023/06/01 02:45:48;;;;;;;12.97;8.10;;;;;;;11.67;82.48;101410.44;5024853;28;20218;-71
2023/06/01 02:48:14;;;;;;;12.87;7.77;;;;;;;11.63;82.47;101411.59;5027097;28;20219;-71
2023/06/01 02:50:40;;;;;;;14.50;8.53;;;;;;;11.61;82.52;101404.63;5021543;28;20579;-72
2023/06/01 02:53:18;;;;;;;13.90;6.93;;;;;;;11.59;82.73;101407.38;5028270;28;20794;-70
2023/06/01 02:55:44;;;;;;;14.97;8.47;;;;;;;11.59;83.05;101415.38;5026616;28;20265;-71
2023/06/01 02:58:16;;;;;;;14.37;7.90;;;;;;;11.61;83.25;101408.16;5022273;28;20214;-71
2023/06/01 03:00:42;;;;;;;14.80;7.97;;;;;;;11.63;83.39;101408.06;5027500;28;20642;-71
2023/06/01 03:03:09;;;;;;;12.80;8.30;;;;;;;11.64;83.40;101410.66;5023660;28;20211;-70
2023/06/01 03:05:35;;;;;;;15.97;8.30;;;;;;;11.64;83.26;101404.47;5022648;28;20205;-69
2023/06/01 03:08:02;;;;;;;10.30;7.13;;;;;;;11.64;83.33;101399.97;5017966;28;20237;-72
2023/06/01 03:10:30;;;;;;;11.87;7.90;;;;;;;11.63;83.31;101402.72;5028731;28;20209;-70
2023/06/01 03:12:56;;;;;;;14.80;7.60;;;;;;;11.61;83.33;101400.16;5021957;28;20210;-71
2023/06/01 03:15:23;;;;;;;15.77;7.43;;;;;;;11.60;83.44;101398.44;5022806;28;20209;-70
2023/06/01 03:17:49;;;;;;;16.40;8.83;;;;;;;11.61;83.89;101397.47;5027617;28;20752;-71
2023/06/01 03:20:16;;;;;;;16.53;8.97;;;;;;;11.61;83.91;101393.94;5022900;28;20195;-70
2023/06/01 03:22:42;;;;;;;14.30;8.93;;;;;;;11.58;83.85;101397.66;5020806;28;20586;-68
2023/06/01 03:25:11;;;;;;;12.43;8.20;;;;;;;11.57;84.08;101397.72;5025444;28;20299;-71
2023/06/01 03:27:38;;;;;;;15.90;9.10;;;;;;;11.55;84.33;101388.94;5019591;28;20263;-71
2023/06/01 03:30:09;;;;;;;10.83;8.20;;;;;;;11.55;84.47;101396.94;5024304;28;20212;-71
2023/06/01 03:32:36;;;;;;;13.63;8.70;;;;;;;11.56;84.77;101393.34;5027121;28;20219;-71
2023/06/01 03:35:02;;;;;;;14.73;9.20;;;;;;;11.55;84.67;101391.63;5028297;28;20215;-71
2023/06/01 03:37:29;;;;;;;16.40;8.50;;;;;;;11.56;84.81;101393.34;5026386;28;20235;-71
2023/06/01 03:39:55;;;;;;;13.13;7.50;;;;;;;11.54;84.84;101384.56;5025002;28;20662;-72
2023/06/01 03:42:22;;;;;;;11.57;8.10;;;;;;;11.54;85.11;101382.75;5021637;28;20213;-72
2023/06/01 03:44:50;;;;;;;15.37;8.60;;;;;;;11.54;84.77;101393.41;5021659;28;20210;-70
2023/06/01 03:47:16;;;;;;;12.90;8.63;;;;;;;11.55;84.66;101388.94;5025864;28;20223;-71
2023/06/01 03:49:42;;;;;;;14.07;9.37;;;;;;;11.55;84.56;101388.94;5028608;28;20342;-70
2023/06/01 03:52:09;;;;;;;15.27;8.70;;;;;;;11.53;84.39;101381.03;5026470;28;20891;-71
2023/06/01 03:54:36;;;;;;;11.07;7.83;;;;;;;11.52;84.44;101387.31;5022149;28;20211;-71
2023/06/01 03:57:02;;;;;;;11.27;7.77;;;;;;;11.52;84.42;101376.63;5022794;28;20231;-72
2023/06/01 03:59:29;;;;;;;12.53;8.40;;;;;;;11.51;84.55;101382.91;5018549;28;20220;-70
2023/06/01 04:01:56;;;;;;;10.40;7.43;;;;;;;11.52;84.34;101389.09;5023757;28;20462;-71
2023/06/01 04:04:28;;;;;;;10.73;7.73;;;;;;;11.53;84.31;101390.84;5028256;28;20215;-71
2023/06/01 04:07:01;;;;;;;12.97;8.10;;;;;;;11.52;84.13;101376.63;5022518;28;20320;-71
2023/06/01 04:09:27;;;;;;;13.53;7.20;;;;;;;11.54;83.99;101384.56;5018669;28;20692;-71
2023/06/01 04:11:54;;;;;;;13.73;7.40;;;;;;;11.54;83.88;101385.41;5023943;28;20407;-71
2023/06/01 04:14:20;;;;;;;16.17;7.23;;;;;;;11.54;83.71;101382.75;5021423;28;20211;-71
2023/06/01 04:16:47;;;;;;;12.07;7.00;;;;;;;11.54;83.64;101384.56;5023468;28;20284;-70
2023/06/01 04:19:15;;;;;;;15.43;7.27;;;;;;;11.56;83.73;101385.34;5027981;28;20688;-71
2023/06/01 04:21:43;;;;;;;15.40;7.50;;;;;;;11.59;83.56;101382.50;5024738;28;20204;-72
2023/06/01 04:24:09;;;;;;;11.93;7.17;;;;;;;11.60;83.21;101382.41;5022144;28;20202;-71
2023/06/01 04:26:36;;;;;;;13.50;7.30;;;;;;;11.61;83.21;101383.28;5022830;28;20229;-71
2023/06/01 04:29:03;;;;;;;17.07;8.13;;;;;;;11.62;82.72;101380.53;5024629;28;20210;-71
2023/06/01 04:31:32;;;;;;;13.00;8.40;;;;;;;11.62;82.39;101393.00;5022266;28;20695;-71
2023/06/01 04:34:01;;;;;;;14.40;7.97;;;;;;;11.61;82.28;101385.94;5026232;28;20269;-71
2023/06/01 04:36:28;;;;;;;16.33;8.53;;;;;;;11.61;82.18;101389.47;5024418;28;20228;-71
2023/06/01 04:38:57;;;;;;;13.10;8.00;;;;;;;11.61;82.25;101389.47;5025560;28;20695;-73
2023/06/01 04:41:24;;;;;;;15.63;8.30;;;;;;;11.62;82.29;101390.34;5022507;28;20441;-72
2023/06/01 04:43:52;;;;;;;12.53;7.77;;;;;;;11.63;82.54;101398.25;5023438;28;20226;-72
2023/06/01 04:46:20;;;;;;;15.37;8.63;;;;;;;11.66;82.52;101399.88;5027092;28;20237;-72
2023/06/01 04:48:47;;;;;;;16.90;8.37;;;;;;;11.68;82.70;101395.31;5026050;28;20223;-73
2023/06/01 04:51:19;;;;;;;14.97;7.77;;;;;;;11.70;82.59;101396.94;5024094;28;20610;-71
2023/06/01 04:53:49;;;;;;;11.17;7.37;;;;;;;11.69;82.52;101397.88;5021312;28;20707;-72
2023/06/01 04:56:17;;;;;;;13.20;7.47;;;;;;;11.72;82.60;101394.19;5027355;28;20225;-72
2023/06/01 04:58:43;;;;;;;11.87;7.20;;;;;;;11.73;82.79;101391.44;5023942;28;20206;-72
2023/06/01 05:01:15;;;;;;;14.43;7.33;;;;;;;11.73;82.60;101382.56;5027779;28;20214;-72
2023/06/01 05:03:42;;;;;;;11.13;7.13;;;;;;;11.73;82.68;101386.09;5026470;28;20442;-72
2023/06/01 05:06:09;;;;;;;17.30;7.30;;;;;;;11.73;82.64;101378.09;5026337;28;20218;-72
2023/06/01 05:08:36;;;;;;;10.60;6.77;;;;;;;11.74;82.52;101381.63;5021609;28;20250;-72
2023/06/01 05:11:03;;;;;;;16.17;7.50;;;;;;;11.71;82.38;101382.66;5019496;28;20207;-73
2023/06/01 05:13:30;;;;;;;23.77;8.17;;;;;;;11.71;82.17;101377.31;5019010;28;20299;-72
2023/06/01 05:15:56;;;;;;;12.90;7.70;;;;;;;11.69;82.18;101381.88;5025494;28;20239;-72
2023/06/01 05:18:23;;;;;;;12.77;7.27;;;;;;;11.70;82.56;101378.28;5024695;28;20362;-72
2023/06/01 05:20:49;;;;;;;19.97;7.30;;;;;;;11.73;82.72;101377.25;5022267;28;20212;-72
2023/06/01 05:23:16;;;;;;;12.50;7.10;;;;;;;11.77;82.89;101374.34;5026461;28;20206;-72
2023/06/01 05:25:42;;;;;;;15.50;8.80;;;;;;;11.81;82.70;101375.03;5019315;28;20205;-73
2023/06/01 05:28:10;;;;;;;17.80;10.27;;;;;;;11.85;82.78;101383.72;5023451;28;20640;-74
2023/06/01 05:30:37;;;;;;;14.03;8.60;;;;;;;11.88;82.69;101372.88;5022906;28;20286;-73
2023/06/01 05:33:04;;;;;;;9.63;8.63;;;;;;;11.90;82.50;101382.50;5024289;28;20693;-73
2023/06/01 05:35:30;;;;;;;12.50;8.93;;;;;;;11.94;82.31;101377.88;5020389;28;20212;-73
2023/06/01 05:37:57;;;;;;;12.73;8.37;;;;;;;11.94;82.26;101373.38;5019410;28;20226;-74
2023/06/01 05:40:23;;;;;;;13.07;8.70;;;;;;;11.96;82.28;101376.84;5020896;28;20673;-74
2023/06/01 05:42:50;;;;;;;11.87;8.83;;;;;;;11.97;82.40;101370.53;5022274;28;20221;-74
2023/06/01 05:45:18;;;;;;;13.67;8.33;;;;;;;12.00;82.34;101367.66;5015065;28;20212;-73
2023/06/01 05:47:44;;;;;;;12.17;7.60;;;;;;;12.02;82.22;101376.47;5024040;28;20250;-73
2023/06/01 05:50:11;;;;;;;13.63;6.63;;;;;;;12.06;82.16;101371.81;5021605;28;20202;-75
2023/06/01 05:52:38;;;;;;;13.80;7.80;;;;;;;12.09;82.27;101371.63;5025038;28;20244;-74
2023/06/01 05:55:05;;;;;;;10.80;7.17;;;;;;;12.13;82.33;101370.50;5026949;28;20622;-74
2023/06/01 05:57:32;;;;;;;13.77;6.97;;;;;;;12.16;82.02;101370.34;5024537;28;20220;-73
2023/06/01 05:59:58;;;;;;;11.70;6.70;;;;;;;12.20;82.38;101366.50;5015826;28;20203;-74
2023/06/01 06:02:26;;;;;;;7.83;6.13;;;;;;;12.22;82.09;101359.28;5027102;28;20496;-74
2023/06/01 06:04:53;;;;;;;14.17;6.73;;;;;;;12.21;82.23;101373.56;5019408;28;20221;-74
2023/06/01 06:07:19;;;;;;;11.77;6.60;;;;;;;12.24;82.33;101372.53;5024061;28;20232;-73
2023/06/01 06:09:46;;;;;;;13.50;7.70;;;;;;;12.27;82.21;101372.38;5025091;28;20210;-74
2023/06/01 06:12:12;;;;;;;17.40;8.07;;;;;;;12.27;82.07;101372.38;5012301;28;20676;-74
2023/06/01 06:14:39;;;;;;;11.40;7.90;;;;;;;12.25;82.07;101369.78;5024594;28;20202;-72
2023/06/01 06:17:06;;;;;;;11.97;7.30;;;;;;;12.26;82.20;101374.19;5025625;28;20238;-73
2023/06/01 06:19:34;;;;;;;11.73;7.43;;;;;;;12.28;82.62;101369.63;5026663;28;20206;-74
2023/06/01 06:22:00;;;;;;;9.47;7.83;;;;;;;12.31;82.74;101372.09;5018091;28;20200;-73
2023/06/01 06:24:27;;;;;;;12.47;7.93;;;;;;;12.33;82.51;101364.00;5024194;28;20212;-74
2023/06/01 06:26:53;;;;;;;13.23;8.60;;;;;;;12.34;82.40;101374.59;5027094;28;20235;-72
2023/06/01 06:29:19;;;;;;;14.53;9.53;;;;;;;12.36;82.59;101361.97;5026314;28;20231;-73
2023/06/01 06:31:46;;;;;;;18.60;8.50;;;;;;;12.39;82.87;101367.16;5021082;28;20213;-73
2023/06/01 06:34:12;;;;;;;12.77;8.80;;;;;;;12.42;82.60;101366.13;5023355;28;20220;-72
2023/06/01 06:36:40;;;;;;;13.47;7.97;;;;;;;12.41;83.05;101367.06;5030038;28;20225;-73
2023/06/01 06:39:07;;;;;;;12.50;6.97;;;;;;;12.42;82.82;101364.31;5024067;28;20202;-72
2023/06/01 06:41:33;;;;;;;10.83;7.47;;;;;;;12.43;82.96;101363.34;5024761;28;20206;-72
2023/06/01 06:43:59;;;;;;;11.43;7.47;;;;;;;12.45;83.07;101361.44;5028110;28;20228;-74
2023/06/01 06:46:26;;;;;;;12.93;7.17;;;;;;;12.48;83.32;101373.78;5024532;28;20234;-75
2023/06/01 06:48:52;;;;;;;11.13;7.40;;;;;;;12.48;83.25;101371.09;5028796;28;20225;-74
2023/06/01 06:51:19;;;;;;;11.63;8.07;;;;;;;12.50;83.02;101372.72;5027656;28;20210;-73
2023/06/01 06:53:49;;;;;;;12.73;7.87;;;;;;;12.51;83.27;101371.78;5025128;28;21049;-72
2023/06/01 06:56:15;;;;;;;13.57;9.03;;;;;;;12.53;83.16;101374.38;5024163;28;20225;-73
2023/06/01 06:58:42;;;;;;;12.00;8.53;;;;;;;12.54;83.03;101373.38;5027036;28;20293;-74
2023/06/01 07:01:08;;;;;;;12.90;8.50;;;;;;;12.57;83.13;101377.69;5029013;28;20210;-74
2023/06/01 07:03:35;;;;;;;12.80;9.33;;;;;;;12.60;83.02;101385.53;5024744;28;20216;-73
2023/06/01 07:06:02;;;;;;;12.57;8.83;;;;;;;12.63;83.27;101375.53;5023883;28;20598;-73
2023/06/01 07:08:28;;;;;;;14.53;10.13;;;;;;;12.68;83.02;101378.78;5030090;28;20246;-73
2023/06/01 07:10:56;;;;;;;24.43;15.37;;;;;;;12.74;83.08;101374.84;5019433;28;20207;-73
2023/06/01 07:13:23;;;;;;;30.10;16.93;;;;;;;12.76;82.61;101376.50;5023108;28;20233;-73
2023/06/01 07:15:50;;;;;;;24.70;15.87;;;;;;;12.78;82.72;101374.59;5021796;28;20703;-74
2023/06/01 07:18:16;;;;;;;29.40;17.33;;;;;;;12.79;82.23;101375.44;5022502;28;20212;-73
2023/06/01 07:20:43;;;;;;;27.60;16.60;;;;;;;12.79;82.15;101381.66;5018578;28;20259;-72
2023/06/01 07:23:12;;;;;;;22.60;14.90;;;;;;;12.79;82.31;101376.31;5023639;28;20217;-72
2023/06/01 07:25:38;;;;;;;16.93;11.43;;;;;;;12.80;81.77;101374.50;5022133;28;20200;-71
2023/06/01 07:28:07;;;;;;;20.27;12.10;;;;;;;12.82;81.79;101372.59;5023077;28;20225;-72
2023/06/01 07:30:33;;;;;;;17.10;11.20;;;;;;;12.85;82.00;101375.09;5021685;28;20253;-73
2023/06/01 07:33:00;;;;;;;21.23;11.00;;;;;;;12.91;81.86;101373.81;5018741;28;20224;-72
2023/06/01 07:35:27;;;;;;;19.47;11.83;;;;;;;12.94;81.79;101377.19;5029995;28;20211;-72
2023/06/01 07:37:53;;;;;;;18.23;12.40;;;;;;;12.96;81.26;101377.09;5022619;28;20917;-72
2023/06/01 07:40:20;;;;;;;26.20;12.43;;;;;;;13.00;81.32;101370.59;5024546;28;20219;-72
2023/06/01 07:42:46;;;;;;;20.43;11.60;;;;;;;13.02;81.22;101379.38;5024160;28;20210;-73
2023/06/01 07:45:14;;;;;;;14.37;9.87;;;;;;;13.06;80.99;101373.75;5025928;28;20210;-73
2023/06/01 07:47:41;;;;;;;16.73;10.63;;;;;;;13.08;80.74;101362.94;5027654;28;20321;-73
2023/06/01 07:50:08;;;;;;;19.67;11.90;;;;;;;13.06;80.51;101378.25;5025120;28;20217;-73
2023/06/01 07:52:35;;;;;;;21.37;11.00;;;;;;;13.05;80.70;101382.75;5026693;28;20213;-72
2023/06/01 07:55:03;;;;;;;18.70;11.03;;;;;;;13.06;80.40;101384.47;5025953;28;20207;-73
2023/06/01 07:57:30;;;;;;;19.53;11.70;;;;;;;13.07;80.78;101380.84;5021570;28;20229;-73
2023/06/01 07:59:56;;;;;;;21.57;12.40;;;;;;;13.06;80.13;101389.81;5025023;28;20210;-74
2023/06/01 08:02:25;;;;;;;21.13;12.03;;;;;;;13.08;80.11;101379.84;5027065;28;20205;-73
2023/06/01 08:04:52;;;;;;;16.03;10.40;;;;;;;13.11;80.09;101376.13;5020904;28;20213;-71
2023/06/01 08:07:19;;;;;;;14.43;9.60;;;;;;;13.14;79.75;101381.28;5020321;28;20238;-72
2023/06/01 08:09:46;;;;;;;15.80;8.93;;;;;;;13.17;79.60;101371.31;5024997;28;20789;-72
2023/06/01 08:12:14;;;;;;;13.03;8.37;;;;;;;13.22;79.17;101372.84;5024797;28;20211;-70
2023/06/01 08:14:41;;;;;;;10.20;7.43;;;;;;;13.27;79.23;101370.69;5026606;28;20203;-72
2023/06/01 08:17:08;;;;;;;12.90;7.07;;;;;;;13.28;78.67;101377.78;5024775;28;20238;-72
2023/06/01 08:19:36;;;;;;;10.50;7.47;;;;;;;13.29;78.00;101371.47;5027567;28;20406;-72
2023/06/01 08:22:04;;;;;;;11.57;6.90;;;;;;;13.29;77.76;101369.66;5028583;28;20627;-72
2023/06/01 08:24:32;;;;;;;12.80;7.60;;;;;;;13.30;77.50;101376.72;5025041;28;20237;-73
2023/06/01 08:26:58;;;;;;;11.97;6.63;;;;;;;13.32;77.81;101372.16;5027987;28;20226;-72
2023/06/01 08:29:25;;;;;;;9.70;6.33;;;;;;;13.38;77.95;101374.44;5021271;28;20285;-75
2023/06/01 08:31:51;;;;;;;9.90;5.83;;;;;;;13.44;77.29;101370.50;5026056;28;20221;-72
2023/06/01 08:34:19;;;;;;;8.10;5.37;;;;;;;13.47;77.18;101372.97;5026257;28;20214;-73
2023/06/01 08:36:47;;;;;;;8.83;5.53;;;;;;;13.52;77.17;101378.91;5019724;28;20226;-72
2023/06/01 08:39:23;;;;;;;9.30;5.50;;;;;;;13.58;77.20;101374.97;5022049;28;20217;-72
2023/06/01 08:42:02;;;;;;;8.53;5.80;;;;;;;13.64;76.89;101370.06;5023178;28;20206;-72
2023/06/01 08:44:34;;;;;;;12.60;5.50;;;;;;;13.70;76.88;101375.03;5019711;28;20202;-72
2023/06/01 08:47:02;;;;;;;10.00;5.57;;;;;;;13.74;76.11;101370.34;5022266;28;20222;-71
2023/06/01 08:49:31;;;;;;;9.07;5.13;;;;;;;13.77;76.05;101376.38;5020897;28;20241;-72
2023/06/01 08:52:01;;;;;;;8.23;5.30;;;;;;;13.82;76.56;101384.09;5021928;28;20210;-73
2023/06/01 08:54:29;;;;;;;9.60;5.50;;;;;;;13.83;76.32;101367.91;5022787;28;20202;-70
2023/06/01 08:56:55;;;;;;;9.13;5.47;;;;;;;13.84;76.03;101372.31;5020751;28;20808;-72
2023/06/01 08:59:22;;;;;;;8.83;5.43;;;;;;;13.89;75.82;101375.56;5019009;28;20608;-72
2023/06/01 09:01:49;;;;;;;8.40;5.20;;;;;;;13.94;75.96;101366.38;5019961;28;20289;-74
2023/06/01 09:04:16;;;;;;;9.13;5.67;;;;;;;13.97;75.69;101361.69;5022416;28;20202;-73
2023/06/01 09:06:42;;;;;;;8.63;6.10;;;;;;;14.01;76.41;101365.84;5021455;28;20222;-72
2023/06/01 09:09:12;;;;;;;9.37;6.17;;;;;;;14.05;76.46;101361.16;5022307;28;20237;-72
2023/06/01 09:11:39;;;;;;;7.77;6.83;;;;;;;14.04;76.77;101362.13;5017789;28;20634;-73
2023/06/01 09:14:21;;;;;;;9.33;6.27;;;;;;;14.04;76.39;101356.75;5019947;28;20218;-73
2023/06/01 09:16:47;;;;;;;13.17;5.90;;;;;;;14.05;77.21;101353.97;5023466;28;20229;-73
2023/06/01 09:19:14;;;;;;;7.30;5.23;;;;;;;14.08;77.20;101355.59;5023934;28;20205;-72
2023/06/01 09:21:41;;;;;;;9.53;5.77;;;;;;;14.10;76.89;101353.69;5016455;28;20209;-73
2023/06/01 09:24:22;;;;;;;9.67;5.37;;;;;;;14.14;76.98;101347.16;5019943;28;20198;-73
2023/06/01 09:26:49;;;;;;;9.20;4.83;;;;;;;14.12;76.23;101349.09;5021190;28;20303;-72
2023/06/01 09:29:16;;;;;;;8.07;5.00;;;;;;;14.07;75.67;101341.34;5020028;28;20276;-73
2023/06/01 09:31:44;;;;;;;10.33;4.53;;;;;;;14.05;75.63;101332.56;5024979;28;20217;-75
2023/06/01 09:34:15;;;;;;;5.50;4.90;;;;;;;14.09;76.05;101339.44;5017500;28;20214;-72
2023/06/01 09:36:42;;;;;;;6.43;5.47;;;;;;;14.13;75.90;101340.94;5022271;28;20224;-73
2023/06/01 09:39:10;;;;;;;7.57;4.90;;;;;;;14.14;75.59;101337.31;5019439;28;20233;-71
2023/06/01 09:41:48;;;;;;;9.60;6.10;;;;;;;14.14;74.92;101344.50;5019190;28;20225;-74
2023/06/01 09:44:22;;;;;;;7.70;4.77;;;;;;;14.15;74.79;101338.16;5020376;28;20214;-74
2023/06/01 09:46:50;;;;;;;6.57;4.47;;;;;;;14.18;74.83;101340.63;5016826;28;20603;-73
2023/06/01 09:49:21;;;;;;;6.77;5.50;;;;;;;14.16;75.01;101338.03;5028197;28;20228;-72
2023/06/01 09:51:48;;;;;;;10.40;5.93;;;;;;;14.18;75.37;101340.63;5025168;28;20566;-72
2023/06/01 09:54:33;;;;;;;10.80;5.37;;;;;;;14.22;75.35;101339.44;5019474;28;20206;-73
2023/06/01 09:57:03;;;;;;;6.03;4.10;;;;;;;14.28;75.40;101335.50;5015770;28;20297;-74
2023/06/01 09:59:30;;;;;;;6.93;4.37;;;;;;;14.31;75.20;101328.13;5022675;28;20684;-74
2023/06/01 10:01:58;;;;;;;8.17;4.50;;;;;;;14.33;74.50;101326.16;5017667;28;20214;-74
2023/06/01 10:04:26;;;;;;;5.60;4.70;;;;;;;14.33;74.48;101326.16;5019165;28;20233;-74
2023/06/01 10:06:55;;;;;;;6.20;4.60;;;;;;;14.34;74.63;101327.91;5025017;28;20225;-73
2023/06/01 10:09:24;;;;;;;6.17;3.87;;;;;;;14.35;74.46;101329.59;5021152;28;20736;-74
2023/06/01 10:11:53;;;;;;;7.70;3.70;;;;;;;14.40;74.46;101322.16;5026760;28;20290;-75
2023/06/01 10:14:21;;;;;;;6.17;3.87;;;;;;;14.43;74.07;101313.91;5023868;28;20224;-73
2023/06/01 10:16:50;;;;;;;7.43;4.77;;;;;;;14.46;74.06;101324.44;5021539;28;20619;-72
2023/06/01 10:19:18;;;;;;;9.67;5.90;;;;;;;14.51;74.31;101324.94;5019006;28;20222;-72
2023/06/01 10:21:45;;;;;;;6.50;5.40;;;;;;;14.54;73.76;101319.38;5023120;28;20533;-73
2023/06/01 10:24:12;;;;;;;7.13;5.47;;;;;;;14.53;73.62;101322.16;5018314;28;20628;-75
2023/06/01 10:26:44;;;;;;;8.20;5.10;;;;;;;14.52;73.85;101323.97;5016924;28;20504;-73
2023/06/01 10:29:13;;;;;;;4.90;4.33;;;;;;;14.56;73.86;101322.81;5025010;28;20226;-74
2023/06/01 10:31:42;;;;;;;4.00;3.47;;;;;;;14.58;73.76;101320.88;5021048;28;20281;-74
2023/06/01 10:34:10;;;;;;;5.10;3.67;;;;;;;14.56;73.03;101313.91;5022365;28;20230;-73
2023/06/01 10:37:14;;;;;;;5.97;3.70;;;;;;;14.58;73.25;101312.00;5024152;28;20231;-74
2023/06/01 10:39:41;;;;;;;4.53;3.80;;;;;;;14.62;73.71;101312.63;5021111;28;20221;-75
2023/06/01 10:42:39;;;;;;;7.40;4.67;;;;;;;14.61;73.49;101313.59;5021880;28;20616;-75
2023/06/01 10:45:08;;;;;;;6.93;4.87;;;;;;;14.63;73.18;101309.84;5022154;28;20202;-75
2023/06/01 10:47:49;;;;;;;6.13;4.27;;;;;;;14.64;73.30;101308.88;5025510;28;20662;-75
2023/06/01 10:50:17;;;;;;;4.50;3.77;;;;;;;14.69;73.90;101312.09;5020751;28;20222;-74
2023/06/01 10:52:43;;;;;;;4.80;2.70;;;;;;;14.75;73.39;101300.06;5023038;28;20612;-75
2023/06/01 10:55:21;;;;;;;6.03;3.33;;;;;;;14.82;73.35;101309.41;5023254;28;20210;-74
2023/06/01 10:57:48;;;;;;;4.77;3.43;;;;;;;14.85;72.88;101306.53;5025684;28;20222;-75
2023/06/01 11:00:16;;;;;;;4.33;3.57;;;;;;;14.91;73.11;101306.06;5017327;28;20247;-75
2023/06/01 11:02:53;;;;;;;3.17;2.97;;;;;;;14.92;72.66;101299.75;5018745;28;20302;-75
2023/06/01 11:05:43;;;;;;;3.30;3.00;;;;;;;14.95;72.19;101296.84;5020753;28;20700;-75
2023/06/01 11:09:00;;;;;;;5.07;3.63;;;;;;;14.99;71.67;101298.34;5025538;28;20674;-74
2023/06/01 11:11:59;;;;;;;3.40;3.10;;;;;;;15.02;71.87;101294.59;4925822;29;20211;-74
2023/06/01 11:14:29;;;;;;;3.50;2.90;;;;;;;15.07;72.04;101287.91;5024501;28;20234;-73
2023/06/01 11:16:56;;;;;;;2.97;2.73;;;;;;;15.15;71.95;101292.75;5028597;28;20245;-74
2023/06/01 11:19:25;;;;;;;2.97;2.67;;;;;;;15.23;71.54;101284.97;5027507;28;20211;-72
2023/06/01 11:21:58;;;;;;;4.93;3.40;;;;;;;15.28;70.91;101289.03;5027974;28;20207;-73
2023/06/01 11:24:26;;;;;;;5.00;4.20;;;;;;;15.31;70.54;101289.78;5025482;28;20222;-71
2023/06/01 11:26:52;;;;;;;5.30;4.43;;;;;;;15.29;70.60;101290.75;5022376;28;20222;-74